Weather History for KE38 - September, 2012

Change the Weather History Date:

Tuesday, September 11, 2012

  Actual Average (KMRF) Record (KMRF)
Temperature  
Mean Temperature 76 °F -  
Max Temperature 91 °F 81 °F 91 °F (2000)
Min Temperature 61 °F 54 °F 46 °F (2004)
Cooling Degree Days 11    
Growing Degree Days 26 (Base 50)    
Moisture  
Dew Point 41 °F    
Average Humidity 29    
Maximum Humidity 44    
Minimum Humidity 18    
Precipitation  
Precipitation 0.00 in - - ()
Sea Level Pressure  
Sea Level Pressure 30.17 in    
Wind  
Wind Speed 5 mph (South)    
Max Wind Speed 13 mph    
Max Gust Speed 20 mph    
Visibility 10 miles    
Events      
Averages and records for this station are not official NWS values.
T = Trace of Precipitation, MM = Missing Value Source: NWS Daily Summary

Daily Weather History Graph

Daily Weather History Graph

Search for Another Location

Airport or City:

Trip Planner

Search our weather history database for the weather conditions in past years. The results will help you decide how hot, cold, wet, or windy it might be!

Date:

Astronomy

Sep. 11, 2012 Rise Set
Actual Time 7:37 AM CDT 8:04 PM CDT
Civil Twilight 7:13 AM CDT 8:28 PM CDT
Nautical Twilight 6:44 AM CDT 8:56 PM CDT
Astronomical Twilight 6:16 AM CDT 9:25 PM CDT
Moon 3:12 AM CDT (9/11) 5:02 PM CDT (9/11)
Length of Visible Light 13h 15m
Length of Day
12h 27m
Waning Crescent, 21% of the Moon is Illuminated
Sep 11
Waning Crescent
Sep 15
New
Sep 22
First Quarter
Sep 29
Full
Oct 8
Last Quarter

Hourly Weather History & Observations

Time (CDT) Temp. Dew Point Humidity Pressure Visibility Wind Dir Wind Speed Gust Speed Precip Events Conditions
12:15 AM 70.3 °F 37.0 °F 30% 30.22 in 10.0 mi SE 3.5 mph - N/A   Clear
12:35 AM 70.2 °F 37.2 °F 30% 30.22 in 10.0 mi Calm Calm - N/A   Clear
12:55 AM 68.4 °F 37.8 °F 33% 30.22 in 10.0 mi Calm Calm - N/A   Clear
1:15 AM 68.9 °F 37.8 °F 32% 30.22 in 10.0 mi Calm Calm - N/A   Clear
1:35 AM 70.7 °F 37.9 °F 30% 30.21 in 10.0 mi SE 3.5 mph - N/A   Clear
1:55 AM 68.2 °F 38.3 °F 33% 30.20 in 10.0 mi Calm Calm - N/A   Clear
2:15 AM 66.9 °F 38.5 °F 35% 30.20 in 10.0 mi Calm Calm - N/A   Clear
2:35 AM 64.0 °F 38.7 °F 39% 30.20 in 10.0 mi Calm Calm - N/A   Clear
2:55 AM 65.5 °F 38.8 °F 38% 30.20 in 10.0 mi Calm Calm - N/A   Clear
3:15 AM 63.9 °F 39.0 °F 40% 30.19 in 10.0 mi Calm Calm - N/A   Clear
3:35 AM 61.9 °F 39.4 °F 43% 30.19 in 10.0 mi SSW 4.6 mph - N/A   Clear
3:55 AM 61.7 °F 39.6 °F 44% 30.19 in 10.0 mi Calm Calm - N/A   Clear
4:15 AM 61.9 °F 39.7 °F 44% 30.19 in 10.0 mi SSW 5.8 mph - N/A   Clear
4:35 AM 62.2 °F 39.9 °F 44% 30.18 in 10.0 mi SSW 5.8 mph - N/A   Clear
4:55 AM 63.9 °F 39.6 °F 41% 30.18 in 10.0 mi SSW 3.5 mph - N/A   Clear
5:15 AM 65.8 °F 39.4 °F 38% 30.18 in 10.0 mi Calm Calm - N/A   Clear
5:35 AM 64.0 °F 39.6 °F 41% 30.17 in 10.0 mi Calm Calm - N/A   Clear
5:55 AM 63.3 °F 39.7 °F 42% 30.17 in 10.0 mi SSW 8.1 mph - N/A   Clear
6:15 AM 62.2 °F 40.1 °F 44% 30.18 in 10.0 mi Calm Calm - N/A   Clear
6:35 AM 63.1 °F 39.7 °F 42% 30.19 in 10.0 mi South 6.9 mph - N/A   Clear
6:55 AM 63.3 °F 39.7 °F 42% 30.19 in 10.0 mi South 6.9 mph - N/A   Clear
7:15 AM 62.1 °F 39.7 °F 44% 30.19 in 10.0 mi South 5.8 mph - N/A   Clear
7:35 AM 62.4 °F 39.7 °F 43% 30.19 in 10.0 mi South 4.6 mph - N/A   Clear
7:55 AM 63.5 °F 39.6 °F 41% 30.20 in 10.0 mi SSW 10.4 mph - N/A   Clear
8:15 AM 67.6 °F 39.2 °F 35% 30.20 in 10.0 mi SSW 8.1 mph - N/A   Clear
8:35 AM 69.6 °F 39.7 °F 34% 30.21 in 10.0 mi South 8.1 mph - N/A   Clear
8:55 AM 71.6 °F 40.1 °F 32% 30.21 in 10.0 mi SSW 6.9 mph - N/A   Clear
9:15 AM 73.6 °F 40.6 °F 30% 30.21 in 10.0 mi South 9.2 mph - N/A   Clear
9:35 AM 75.6 °F 40.5 °F 28% 30.21 in 10.0 mi SSW 6.9 mph - N/A   Clear
9:55 AM 77.7 °F 40.8 °F 27% 30.22 in 10.0 mi South 6.9 mph - N/A   Clear
10:15 AM 79.7 °F 41.2 °F 25% 30.22 in 10.0 mi SSW 4.6 mph - N/A   Clear
10:35 AM 80.6 °F 41.4 °F 25% 30.22 in 10.0 mi SSW 4.6 mph - N/A   Clear
10:55 AM 81.7 °F 41.9 °F 24% 30.22 in 10.0 mi SSW 5.8 mph - N/A   Clear
11:15 AM 83.1 °F 42.8 °F 24% 30.23 in 10.0 mi South 4.6 mph - N/A   Clear
11:35 AM 84.0 °F 42.6 °F 23% 30.22 in 10.0 mi South 5.8 mph - N/A   Clear
11:55 AM 85.1 °F 42.6 °F 22% 30.22 in 10.0 mi SSW 5.8 mph - N/A   Clear
12:15 PM 86.2 °F 42.3 °F 21% 30.21 in 10.0 mi SSW 6.9 mph - N/A   Clear
12:35 PM 87.1 °F 42.4 °F 21% 30.21 in 10.0 mi South 8.1 mph - N/A   Clear
12:55 PM 87.6 °F 42.4 °F 21% 30.20 in 10.0 mi SW 9.2 mph - N/A   Clear
1:15 PM 88.9 °F 43.0 °F 20% 30.19 in 10.0 mi South 9.2 mph - N/A   Clear
1:35 PM 88.9 °F 43.0 °F 20% 30.19 in 10.0 mi South 6.9 mph - N/A   Scattered Clouds
1:55 PM 88.5 °F 43.2 °F 20% 30.19 in 10.0 mi SE 4.6 mph - N/A   Clear
2:15 PM 88.7 °F 42.8 °F 20% 30.17 in 10.0 mi SE 3.5 mph - N/A   Scattered Clouds
2:35 PM 89.8 °F 42.8 °F 19% 30.16 in 10.0 mi South 4.6 mph - N/A   Clear
2:55 PM 89.8 °F 42.3 °F 19% 30.16 in 10.0 mi SSE 10.4 mph - N/A   Clear
3:15 PM 89.2 °F 42.3 °F 19% 30.15 in 10.0 mi South 6.9 mph - N/A   Scattered Clouds
3:35 PM 89.8 °F 42.6 °F 19% 30.14 in 10.0 mi South 5.8 mph - N/A   Scattered Clouds
3:55 PM 90.0 °F 42.3 °F 19% 30.13 in 10.0 mi South 9.2 mph - N/A   Clear
4:15 PM 90.7 °F 41.7 °F 18% 30.12 in 10.0 mi SW 3.5 mph - N/A   Clear
4:35 PM 91.0 °F 41.9 °F 18% 30.12 in 10.0 mi SSW 9.2 mph - N/A   Clear
4:55 PM 90.3 °F 41.7 °F 18% 30.12 in 10.0 mi South 8.1 mph - N/A   Clear
5:15 PM 90.0 °F 41.9 °F 19% 30.11 in 10.0 mi SSE 9.2 mph - N/A   Clear
5:35 PM 89.6 °F 41.5 °F 19% 30.11 in 10.0 mi SE 8.1 mph - N/A   Clear
5:55 PM 89.2 °F 41.2 °F 19% 30.11 in 10.0 mi South 8.1 mph - N/A   Clear
6:15 PM 88.9 °F 41.7 °F 19% 30.11 in 10.0 mi SSE 10.4 mph 16.1 mph N/A   Clear
6:35 PM 88.3 °F 41.7 °F 20% 30.11 in 10.0 mi SSE 6.9 mph - N/A   Clear
6:55 PM 87.3 °F 41.5 °F 20% 30.11 in 10.0 mi South 6.9 mph - N/A   Scattered Clouds
7:15 PM 86.2 °F 41.7 °F 21% 30.11 in 7.0 mi SE 8.1 mph - N/A   Mostly Cloudy
7:35 PM 84.9 °F 42.3 °F 22% 30.11 in 10.0 mi SE 9.2 mph - N/A   Mostly Cloudy
7:55 PM 83.1 °F 42.4 °F 24% 30.12 in 10.0 mi SSE 8.1 mph - N/A   Scattered Clouds
8:15 PM 82.0 °F 42.6 °F 25% 30.12 in 10.0 mi ESE 12.7 mph 17.3 mph N/A   Scattered Clouds
8:35 PM 81.3 °F 43.7 °F 26% 30.12 in 10.0 mi SE 11.5 mph - N/A   Scattered Clouds
8:55 PM 80.2 °F 44.1 °F 28% 30.13 in 10.0 mi ESE 10.4 mph 17.3 mph N/A   Clear
9:15 PM 79.3 °F 44.8 °F 29% 30.13 in 10.0 mi SE 10.4 mph - N/A   Clear
9:35 PM 78.8 °F 46.0 °F 31% 30.14 in 10.0 mi ESE 11.5 mph 19.6 mph N/A   Clear
9:55 PM 78.1 °F 46.4 °F 33% 30.15 in 10.0 mi ESE 11.5 mph - N/A   Clear
10:15 PM 77.7 °F 46.4 °F 33% 30.16 in 10.0 mi SE 12.7 mph 16.1 mph N/A   Clear
10:35 PM 77.2 °F 46.2 °F 33% 30.16 in 10.0 mi SE 11.5 mph 17.3 mph N/A   Clear
10:55 PM 76.3 °F 45.9 °F 34% 30.16 in 10.0 mi South 5.8 mph - N/A   Clear
11:35 PM 75.6 °F 45.3 °F 34% 30.17 in 10.0 mi Calm Calm - N/A   Scattered Clouds
11:55 PM 75.2 °F 45.0 °F 34% 30.17 in 10.0 mi Calm Calm - N/A   Scattered Clouds